Ford, Kentucky
Current Conditions -  °F | °C
As of 5:55 PM on Friday 28 Nov 2014 (Local Time) from KI39 Reporting Station
Clear Clear  
Wind Chill: 34°   Ceiling: Unl
Heat Index: 34°   Visibility: 10mi
Dew Point: 18°   Wind: 3mph
Humidity: 52%   Direction: 150°SSE
Pressure: 30.21"   Gusts: NA
Location:  37.88°N, 84.26°W
Report Text: KI39 282255Z AUTO 15003KT 10SM CLR 01/M08 A3021 RMK AO2
Loading
Personal Weather Stations






























Interactive Weather Map New forecast layout! Learn more

10-Day Weather Forecast

Advertisements
Track Severe Weather on mobile